Cottonwood Airport (P52)
Cottonwood, AZ
Field Elevation: 3562
Lat: 34°43.80N  Long: 112°02.10W
CTAF/Unicom Freq: 122.7000
   
    
Weather Advisories
10/26/2014 01:48 Z
Altimeter 30.09" Hg
Wind 230° @ 0 KT
Gusts --
Visibility 10 SM
Temperature 23° C (73° F)
Dewpoint 7° C (45° F)
Relative Humidity 37%
Density Altitude 5,000 feet
Condensation Altitude 11,300 feet
  Wind and Runways
Indicated Runway = 14
History
 
 
More Info
All DigiWx sites map
NOAA Forecast
 
Airport IQ 5010
 
about DigiWx
 
FAA Disclaimer: The data displayed is for advisory purposes only and is not to be used for flight planning or operations. For official data, please call (not available) to hear the current automated AWOS voice message.
  METAR P52 260148Z AUTO 23000KT 10SM 23/07 A3009